sensor_id;sensor_type;location;lat;lon;timestamp;pressure;altitude;pressure_sealevel;temperature;humidity
63708;BME280;67643;-34.198;22.084;2023-05-19T00:02:16;100929.02;;;17.10;42.60
63708;BME280;67643;-34.198;22.084;2023-05-19T00:04:45;100926.97;;;16.75;43.26
63708;BME280;67643;-34.198;22.084;2023-05-19T00:07:16;100925.28;;;16.61;43.26
63708;BME280;67643;-34.198;22.084;2023-05-19T00:09:45;100923.73;;;16.87;42.96
63708;BME280;67643;-34.198;22.084;2023-05-19T00:12:15;100923.48;;;17.14;42.80
63708;BME280;67643;-34.198;22.084;2023-05-19T00:14:43;100922.88;;;17.25;42.62
63708;BME280;67643;-34.198;22.084;2023-05-19T00:17:12;100921.87;;;17.35;42.46
63708;BME280;67643;-34.198;22.084;2023-05-19T00:19:42;100920.47;;;17.07;42.88
63708;BME280;67643;-34.198;22.084;2023-05-19T00:22:11;100922.81;;;17.52;42.21
63708;BME280;67643;-34.198;22.084;2023-05-19T00:24:39;100920.77;;;17.33;42.38
63708;BME280;67643;-34.198;22.084;2023-05-19T00:27:07;100918.65;;;17.32;42.43
63708;BME280;67643;-34.198;22.084;2023-05-19T00:29:36;100915.70;;;17.15;42.68
63708;BME280;67643;-34.198;22.084;2023-05-19T00:32:05;100913.15;;;17.48;42.24
63708;BME280;67643;-34.198;22.084;2023-05-19T00:34:33;100910.59;;;17.69;42.24
63708;BME280;67643;-34.198;22.084;2023-05-19T00:37:01;100908.55;;;17.48;42.24
63708;BME280;67643;-34.198;22.084;2023-05-19T00:39:30;100909.47;;;17.11;42.70
63708;BME280;67643;-34.198;22.084;2023-05-19T00:41:58;100904.66;;;17.20;42.57
63708;BME280;67643;-34.198;22.084;2023-05-19T00:44:27;100904.15;;;16.99;42.79
63708;BME280;67643;-34.198;22.084;2023-05-19T00:46:56;100899.84;;;17.05;42.08
63708;BME280;67643;-34.198;22.084;2023-05-19T00:49:24;100895.30;;;17.25;42.34
63708;BME280;67643;-34.198;22.084;2023-05-19T00:51:53;100896.60;;;16.83;42.69
63708;BME280;67643;-34.198;22.084;2023-05-19T00:54:21;100897.25;;;17.02;42.62
63708;BME280;67643;-34.198;22.084;2023-05-19T00:56:51;100896.77;;;16.76;42.63
63708;BME280;67643;-34.198;22.084;2023-05-19T00:59:20;100895.78;;;16.84;42.89
63708;BME280;67643;-34.198;22.084;2023-05-19T01:01:49;100891.77;;;17.11;42.39
63708;BME280;67643;-34.198;22.084;2023-05-19T01:04:19;100892.26;;;16.68;42.70
63708;BME280;67643;-34.198;22.084;2023-05-19T01:06:48;100891.17;;;16.89;42.34
63708;BME280;67643;-34.198;22.084;2023-05-19T01:09:17;100891.29;;;17.18;42.67
63708;BME280;67643;-34.198;22.084;2023-05-19T01:11:45;100887.69;;;16.96;42.31
63708;BME280;67643;-34.198;22.084;2023-05-19T01:14:14;100889.60;;;17.06;42.14
63708;BME280;67643;-34.198;22.084;2023-05-19T01:16:48;100889.95;;;16.58;42.63
63708;BME280;67643;-34.198;22.084;2023-05-19T01:19:32;100886.53;;;16.86;42.67
63708;BME280;67643;-34.198;22.084;2023-05-19T01:22:21;100884.93;;;16.98;42.93
63708;BME280;67643;-34.198;22.084;2023-05-19T01:25:10;100882.98;;;16.72;42.79
63708;BME280;67643;-34.198;22.084;2023-05-19T01:27:54;100881.09;;;17.04;42.23
63708;BME280;67643;-34.198;22.084;2023-05-19T01:30:29;100876.51;;;16.85;42.85
63708;BME280;67643;-34.198;22.084;2023-05-19T01:33:03;100873.82;;;17.07;42.33
63708;BME280;67643;-34.198;22.084;2023-05-19T01:35:34;100872.37;;;16.78;42.74
63708;BME280;67643;-34.198;22.084;2023-05-19T01:38:06;100868.28;;;16.73;42.78
63708;BME280;67643;-34.198;22.084;2023-05-19T01:40:36;100865.73;;;16.53;42.86
63708;BME280;67643;-34.198;22.084;2023-05-19T01:43:06;100860.56;;;16.66;42.63
63708;BME280;67643;-34.198;22.084;2023-05-19T01:45:36;100858.91;;;16.64;42.19
63708;BME280;67643;-34.198;22.084;2023-05-19T01:48:06;100855.40;;;16.83;42.87
63708;BME280;67643;-34.198;22.084;2023-05-19T01:50:35;100856.39;;;16.87;42.31
63708;BME280;67643;-34.198;22.084;2023-05-19T01:53:03;100851.19;;;16.45;42.75
63708;BME280;67643;-34.198;22.084;2023-05-19T01:55:31;100850.19;;;16.05;42.52
63708;BME280;67643;-34.198;22.084;2023-05-19T01:58:08;100846.79;;;16.18;42.62
63708;BME280;67643;-34.198;22.084;2023-05-19T02:00:49;100842.06;;;16.28;42.78
63708;BME280;67643;-34.198;22.084;2023-05-19T04:13:49;100813.27;;;14.00;58.34
63708;BME280;67643;-34.198;22.084;2023-05-19T04:16:18;100812.19;;;15.45;53.08
63708;BME280;67643;-34.198;22.084;2023-05-19T04:18:47;100812.88;;;16.19;50.54
63708;BME280;67643;-34.198;22.084;2023-05-19T04:21:16;100813.53;;;16.53;47.72
63708;BME280;67643;-34.198;22.084;2023-05-19T04:23:44;100808.17;;;16.90;47.25
63708;BME280;67643;-34.198;22.084;2023-05-19T04:26:13;100813.51;;;17.15;45.98
63708;BME280;67643;-34.198;22.084;2023-05-19T04:28:41;100818.52;;;17.37;46.07
63708;BME280;67643;-34.198;22.084;2023-05-19T04:31:10;100820.64;;;17.22;44.91
63708;BME280;67643;-34.198;22.084;2023-05-19T04:33:39;100828.18;;;17.02;45.74
63708;BME280;67643;-34.198;22.084;2023-05-19T04:36:09;100827.10;;;17.11;44.97
63708;BME280;67643;-34.198;22.084;2023-05-19T04:38:37;100832.57;;;16.57;45.09
63708;BME280;67643;-34.198;22.084;2023-05-19T04:41:06;100838.92;;;16.23;45.60
63708;BME280;67643;-34.198;22.084;2023-05-19T04:43:35;100845.61;;;16.50;45.30
63708;BME280;67643;-34.198;22.084;2023-05-19T04:46:04;100848.16;;;15.94;45.35
63708;BME280;67643;-34.198;22.084;2023-05-19T04:48:32;100849.46;;;15.93;44.56
63708;BME280;67643;-34.198;22.084;2023-05-19T04:51:01;100849.43;;;15.87;45.57
63708;BME280;67643;-34.198;22.084;2023-05-19T04:53:29;100845.36;;;16.22;44.40
63708;BME280;67643;-34.198;22.084;2023-05-19T04:55:59;100843.51;;;16.46;44.86
63708;BME280;67643;-34.198;22.084;2023-05-19T04:58:27;100842.76;;;16.73;44.81
63708;BME280;67643;-34.198;22.084;2023-05-19T05:00:55;100843.48;;;16.72;45.14
63708;BME280;67643;-34.198;22.084;2023-05-19T05:03:24;100844.17;;;15.73;44.99
63708;BME280;67643;-34.198;22.084;2023-05-19T05:05:52;100845.55;;;16.24;44.46
63708;BME280;67643;-34.198;22.084;2023-05-19T05:08:21;100850.56;;;16.19;44.58
63708;BME280;67643;-34.198;22.084;2023-05-19T05:10:50;100849.31;;;16.56;45.04
63708;BME280;67643;-34.198;22.084;2023-05-19T05:13:22;100851.57;;;16.60;45.14
63708;BME280;67643;-34.198;22.084;2023-05-19T05:15:52;100849.46;;;16.81;44.90
63708;BME280;67643;-34.198;22.084;2023-05-19T05:18:21;100848.26;;;16.77;44.96
63708;BME280;67643;-34.198;22.084;2023-05-19T05:20:49;100850.24;;;17.14;44.07
63708;BME280;67643;-34.198;22.084;2023-05-19T05:23:18;100857.59;;;16.48;44.23
63708;BME280;67643;-34.198;22.084;2023-05-19T05:25:48;100854.58;;;15.74;43.01
63708;BME280;67643;-34.198;22.084;2023-05-19T05:28:17;100857.46;;;16.18;44.80
63708;BME280;67643;-34.198;22.084;2023-05-19T05:30:45;100856.58;;;16.47;43.29
63708;BME280;67643;-34.198;22.084;2023-05-19T05:33:13;100857.47;;;15.94;44.59
63708;BME280;67643;-34.198;22.084;2023-05-19T05:35:42;100864.03;;;16.28;44.96
63708;BME280;67643;-34.198;22.084;2023-05-19T05:38:10;100868.68;;;16.24;44.84
63708;BME280;67643;-34.198;22.084;2023-05-19T05:40:39;100875.01;;;16.20;44.94
63708;BME280;67643;-34.198;22.084;2023-05-19T05:43:08;100879.50;;;16.23;44.04
63708;BME280;67643;-34.198;22.084;2023-05-19T05:45:36;100881.36;;;15.97;43.67
63708;BME280;67643;-34.198;22.084;2023-05-19T05:48:06;100887.41;;;16.13;43.37
63708;BME280;67643;-34.198;22.084;2023-05-19T05:50:36;100889.50;;;15.80;43.53
63708;BME280;67643;-34.198;22.084;2023-05-19T05:53:05;100892.90;;;16.42;43.58
63708;BME280;67643;-34.198;22.084;2023-05-19T05:55:35;100892.09;;;15.93;43.43
63708;BME280;67643;-34.198;22.084;2023-05-19T05:58:04;100890.04;;;16.06;43.09
63708;BME280;67643;-34.198;22.084;2023-05-19T06:00:32;100886.36;;;16.19;42.87
63708;BME280;67643;-34.198;22.084;2023-05-19T06:03:01;100888.15;;;16.42;43.95
63708;BME280;67643;-34.198;22.084;2023-05-19T06:05:29;100890.96;;;16.85;43.18
63708;BME280;67643;-34.198;22.084;2023-05-19T06:07:58;100893.62;;;16.29;42.90
63708;BME280;67643;-34.198;22.084;2023-05-19T06:10:28;100890.40;;;16.31;42.93
63708;BME280;67643;-34.198;22.084;2023-05-19T06:12:56;100887.50;;;15.91;43.76
63708;BME280;67643;-34.198;22.084;2023-05-19T06:15:25;100886.27;;;16.93;43.36
63708;BME280;67643;-34.198;22.084;2023-05-19T06:17:54;100884.21;;;16.61;42.97
63708;BME280;67643;-34.198;22.084;2023-05-19T06:20:22;100884.29;;;16.82;42.89
63708;BME280;67643;-34.198;22.084;2023-05-19T06:22:50;100885.20;;;16.87;43.18
63708;BME280;67643;-34.198;22.084;2023-05-19T06:25:19;100887.42;;;17.16;42.93
63708;BME280;67643;-34.198;22.084;2023-05-19T06:27:48;100887.53;;;16.82;42.72
63708;BME280;67643;-34.198;22.084;2023-05-19T06:30:16;100885.59;;;17.30;42.72
63708;BME280;67643;-34.198;22.084;2023-05-19T06:32:45;100891.62;;;17.42;42.84
63708;BME280;67643;-34.198;22.084;2023-05-19T06:35:13;100891.85;;;17.46;42.65
63708;BME280;67643;-34.198;22.084;2023-05-19T06:37:41;100895.25;;;17.12;43.01
63708;BME280;67643;-34.198;22.084;2023-05-19T06:40:11;100897.08;;;17.11;42.52
63708;BME280;67643;-34.198;22.084;2023-05-19T06:42:39;100895.24;;;17.20;42.79
63708;BME280;67643;-34.198;22.084;2023-05-19T06:45:09;100897.77;;;16.98;43.28
63708;BME280;67643;-34.198;22.084;2023-05-19T06:47:37;100895.01;;;16.96;43.06
63708;BME280;67643;-34.198;22.084;2023-05-19T06:50:07;100892.45;;;16.71;43.43
63708;BME280;67643;-34.198;22.084;2023-05-19T06:52:36;100895.22;;;16.94;43.07
63708;BME280;67643;-34.198;22.084;2023-05-19T06:55:05;100896.81;;;17.08;43.19
63708;BME280;67643;-34.198;22.084;2023-05-19T06:57:33;100897.41;;;17.27;42.66
63708;BME280;67643;-34.198;22.084;2023-05-19T07:00:02;100895.62;;;17.01;43.09
63708;BME280;67643;-34.198;22.084;2023-05-19T07:02:30;100896.32;;;16.95;42.61
63708;BME280;67643;-34.198;22.084;2023-05-19T07:04:59;100894.14;;;17.12;42.81
63708;BME280;67643;-34.198;22.084;2023-05-19T07:07:28;100890.44;;;17.18;42.48
63708;BME280;67643;-34.198;22.084;2023-05-19T07:09:56;100890.28;;;17.22;42.07
63708;BME280;67643;-34.198;22.084;2023-05-19T07:12:25;100896.41;;;17.06;42.29
63708;BME280;67643;-34.198;22.084;2023-05-19T07:14:53;100898.07;;;17.21;41.31
63708;BME280;67643;-34.198;22.084;2023-05-19T07:17:22;100896.52;;;17.18;42.18
63708;BME280;67643;-34.198;22.084;2023-05-19T07:19:51;100893.11;;;17.23;41.45
63708;BME280;67643;-34.198;22.084;2023-05-19T07:22:20;100895.65;;;17.29;41.39
63708;BME280;67643;-34.198;22.084;2023-05-19T07:24:48;100900.17;;;17.33;41.12
63708;BME280;67643;-34.198;22.084;2023-05-19T07:27:17;100901.67;;;17.42;41.16
63708;BME280;67643;-34.198;22.084;2023-05-19T07:29:45;100906.97;;;17.52;40.64
63708;BME280;67643;-34.198;22.084;2023-05-19T07:32:14;100910.39;;;17.42;40.04
63708;BME280;67643;-34.198;22.084;2023-05-19T07:34:42;100913.91;;;17.63;40.53
63708;BME280;67643;-34.198;22.084;2023-05-19T07:37:11;100911.34;;;17.95;40.15
63708;BME280;67643;-34.198;22.084;2023-05-19T07:39:39;100914.22;;;17.43;41.01
63708;BME280;67643;-34.198;22.084;2023-05-19T07:42:08;100918.82;;;17.32;40.94
63708;BME280;67643;-34.198;22.084;2023-05-19T07:44:36;100920.79;;;17.32;40.66
63708;BME280;67643;-34.198;22.084;2023-05-19T07:47:05;100920.10;;;17.87;40.93
63708;BME280;67643;-34.198;22.084;2023-05-19T07:49:34;100916.06;;;18.00;41.23
63708;BME280;67643;-34.198;22.084;2023-05-19T07:52:03;100921.25;;;17.73;41.39
63708;BME280;67643;-34.198;22.084;2023-05-19T07:54:32;100924.96;;;17.44;41.35
63708;BME280;67643;-34.198;22.084;2023-05-19T07:57:00;100924.35;;;17.50;41.20
63708;BME280;67643;-34.198;22.084;2023-05-19T07:59:30;100924.32;;;17.55;41.54
63708;BME280;67643;-34.198;22.084;2023-05-19T08:01:58;100922.47;;;17.58;41.51
63708;BME280;67643;-34.198;22.084;2023-05-19T08:04:26;100923.17;;;17.60;41.75
63708;BME280;67643;-34.198;22.084;2023-05-19T08:06:55;100924.29;;;17.92;41.71
63708;BME280;67643;-34.198;22.084;2023-05-19T08:09:23;100921.87;;;17.56;41.56
63708;BME280;67643;-34.198;22.084;2023-05-19T08:11:52;100922.43;;;18.03;41.22
63708;BME280;67643;-34.198;22.084;2023-05-19T08:14:20;100921.40;;;17.91;41.43
63708;BME280;67643;-34.198;22.084;2023-05-19T08:16:49;100917.15;;;17.69;41.54
63708;BME280;67643;-34.198;22.084;2023-05-19T08:19:17;100919.44;;;17.51;41.88
63708;BME280;67643;-34.198;22.084;2023-05-19T08:21:46;100917.82;;;17.82;41.25
63708;BME280;67643;-34.198;22.084;2023-05-19T08:24:15;100919.66;;;17.85;40.95
63708;BME280;67643;-34.198;22.084;2023-05-19T08:26:44;100920.91;;;17.80;41.20
63708;BME280;67643;-34.198;22.084;2023-05-19T08:29:12;100915.65;;;17.87;40.83
63708;BME280;67643;-34.198;22.084;2023-05-19T08:31:41;100912.82;;;18.05;40.80
63708;BME280;67643;-34.198;22.084;2023-05-19T08:34:09;100915.03;;;18.05;40.77
63708;BME280;67643;-34.198;22.084;2023-05-19T08:36:38;100914.90;;;18.04;40.86
63708;BME280;67643;-34.198;22.084;2023-05-19T08:39:06;100918.77;;;18.18;40.70
63708;BME280;67643;-34.198;22.084;2023-05-19T08:41:35;100915.99;;;18.17;41.06
63708;BME280;67643;-34.198;22.084;2023-05-19T08:44:04;100914.74;;;18.17;41.58
63708;BME280;67643;-34.198;22.084;2023-05-19T08:46:32;100914.56;;;18.42;41.22
63708;BME280;67643;-34.198;22.084;2023-05-19T08:49:07;100914.04;;;18.35;41.47
63708;BME280;67643;-34.198;22.084;2023-05-19T08:51:43;100907.39;;;18.24;41.48
63708;BME280;67643;-34.198;22.084;2023-05-19T08:54:16;100908.79;;;18.13;41.54
63708;BME280;67643;-34.198;22.084;2023-05-19T08:56:45;100907.13;;;17.98;41.35
63708;BME280;67643;-34.198;22.084;2023-05-19T08:59:14;100903.76;;;18.52;41.54
63708;BME280;67643;-34.198;22.084;2023-05-19T09:01:44;100899.96;;;18.62;41.26
63708;BME280;67643;-34.198;22.084;2023-05-19T09:04:13;100903.53;;;18.64;41.25
63708;BME280;67643;-34.198;22.084;2023-05-19T09:06:43;100902.73;;;18.60;41.29
63708;BME280;67643;-34.198;22.084;2023-05-19T09:09:11;100899.61;;;18.51;41.22
63708;BME280;67643;-34.198;22.084;2023-05-19T09:11:40;100896.62;;;18.32;41.48
63708;BME280;67643;-34.198;22.084;2023-05-19T09:14:12;100892.43;;;18.52;41.55
63708;BME280;67643;-34.198;22.084;2023-05-19T09:16:41;100891.84;;;18.82;40.89
63708;BME280;67643;-34.198;22.084;2023-05-19T09:19:14;100890.13;;;18.93;40.92
63708;BME280;67643;-34.198;22.084;2023-05-19T09:21:43;100884.39;;;18.57;40.91
63708;BME280;67643;-34.198;22.084;2023-05-19T09:24:11;100878.85;;;18.80;40.98
63708;BME280;67643;-34.198;22.084;2023-05-19T09:26:41;100875.45;;;18.88;40.48
63708;BME280;67643;-34.198;22.084;2023-05-19T09:29:14;100875.06;;;19.07;39.97
63708;BME280;67643;-34.198;22.084;2023-05-19T09:31:48;100870.40;;;19.07;40.63
63708;BME280;67643;-34.198;22.084;2023-05-19T09:34:17;100868.64;;;19.10;40.03
63708;BME280;67643;-34.198;22.084;2023-05-19T09:36:47;100864.56;;;18.65;40.20
63708;BME280;67643;-34.198;22.084;2023-05-19T09:39:16;100857.95;;;18.80;40.28
63708;BME280;67643;-34.198;22.084;2023-05-19T09:41:45;100854.01;;;19.02;39.71
63708;BME280;67643;-34.198;22.084;2023-05-19T09:44:20;100845.99;;;18.91;39.86
63708;BME280;67643;-34.198;22.084;2023-05-19T09:46:50;100844.53;;;19.29;39.77
63708;BME280;67643;-34.198;22.084;2023-05-19T09:49:20;100843.73;;;18.91;39.74
63708;BME280;67643;-34.198;22.084;2023-05-19T09:51:51;100838.94;;;19.27;39.75
63708;BME280;67643;-34.198;22.084;2023-05-19T09:54:21;100835.16;;;18.92;39.64
63708;BME280;67643;-34.198;22.084;2023-05-19T09:56:57;100831.16;;;18.85;39.99
63708;BME280;67643;-34.198;22.084;2023-05-19T09:59:27;100831.98;;;18.79;40.15
63708;BME280;67643;-34.198;22.084;2023-05-19T12:04:57;100650.46;;;13.75;54.42
63708;BME280;67643;-34.198;22.084;2023-05-19T12:07:25;100649.38;;;16.50;48.19
63708;BME280;67643;-34.198;22.084;2023-05-19T12:09:59;100636.74;;;17.35;44.66
63708;BME280;67643;-34.198;22.084;2023-05-19T12:12:29;100631.35;;;17.93;43.07
63708;BME280;67643;-34.198;22.084;2023-05-19T12:14:57;100627.72;;;18.86;41.13
63708;BME280;67643;-34.198;22.084;2023-05-19T12:17:35;100621.07;;;19.28;40.35
63708;BME280;67643;-34.198;22.084;2023-05-19T12:20:05;100619.91;;;19.34;39.84
63708;BME280;67643;-34.198;22.084;2023-05-19T12:22:34;100619.09;;;19.22;39.97
63708;BME280;67643;-34.198;22.084;2023-05-19T12:25:04;100621.20;;;19.49;39.61
63708;BME280;67643;-34.198;22.084;2023-05-19T12:27:35;100619.80;;;19.76;38.78
63708;BME280;67643;-34.198;22.084;2023-05-19T12:30:04;100619.05;;;20.11;38.41
63708;BME280;67643;-34.198;22.084;2023-05-19T12:32:33;100616.79;;;19.49;38.84
63708;BME280;67643;-34.198;22.084;2023-05-19T12:35:03;100614.00;;;19.45;39.09
63708;BME280;67643;-34.198;22.084;2023-05-19T12:37:33;100611.14;;;19.44;39.07
63708;BME280;67643;-34.198;22.084;2023-05-19T12:40:03;100613.74;;;19.25;39.48
63708;BME280;67643;-34.198;22.084;2023-05-19T12:42:31;100608.28;;;19.02;40.05
63708;BME280;67643;-34.198;22.084;2023-05-19T12:45:01;100598.94;;;19.78;39.78
63708;BME280;67643;-34.198;22.084;2023-05-19T12:47:30;100590.37;;;19.66;39.44
63708;BME280;67643;-34.198;22.084;2023-05-19T12:50:02;100590.11;;;19.74;39.36
63708;BME280;67643;-34.198;22.084;2023-05-19T12:52:32;100590.80;;;19.58;40.11
63708;BME280;67643;-34.198;22.084;2023-05-19T12:55:02;100589.95;;;19.42;40.03
63708;BME280;67643;-34.198;22.084;2023-05-19T12:57:34;100589.96;;;19.69;40.08
63708;BME280;67643;-34.198;22.084;2023-05-19T13:00:04;100585.58;;;19.86;40.09
63708;BME280;67643;-34.198;22.084;2023-05-19T13:02:34;100583.59;;;20.06;39.68
63708;BME280;67643;-34.198;22.084;2023-05-19T13:05:03;100582.47;;;19.94;40.06
63708;BME280;67643;-34.198;22.084;2023-05-19T13:07:32;100579.33;;;19.75;40.20
63708;BME280;67643;-34.198;22.084;2023-05-19T13:10:00;100575.83;;;19.92;40.27
63708;BME280;67643;-34.198;22.084;2023-05-19T13:12:28;100579.76;;;20.01;40.27
63708;BME280;67643;-34.198;22.084;2023-05-19T13:14:57;100577.25;;;20.15;39.79
63708;BME280;67643;-34.198;22.084;2023-05-19T13:17:25;100578.03;;;19.85;40.75
63708;BME280;67643;-34.198;22.084;2023-05-19T13:19:54;100579.44;;;19.48;40.98
63708;BME280;67643;-34.198;22.084;2023-05-19T13:22:22;100580.65;;;19.69;40.81
63708;BME280;67643;-34.198;22.084;2023-05-19T13:24:50;100583.22;;;19.24;41.43
63708;BME280;67643;-34.198;22.084;2023-05-19T13:27:17;100584.54;;;19.43;41.29
63708;BME280;67643;-34.198;22.084;2023-05-19T13:29:46;100581.14;;;19.48;41.54
63708;BME280;67643;-34.198;22.084;2023-05-19T13:32:14;100582.35;;;19.36;41.46
63708;BME280;67643;-34.198;22.084;2023-05-19T13:34:43;100580.46;;;19.69;41.24
63708;BME280;67643;-34.198;22.084;2023-05-19T13:37:11;100586.76;;;19.20;41.91
63708;BME280;67643;-34.198;22.084;2023-05-19T13:39:40;100588.41;;;19.61;41.60
63708;BME280;67643;-34.198;22.084;2023-05-19T13:42:08;100590.90;;;19.70;41.55
63708;BME280;67643;-34.198;22.084;2023-05-19T13:44:38;100590.33;;;19.34;41.67
63708;BME280;67643;-34.198;22.084;2023-05-19T13:47:06;100595.27;;;19.37;42.01
63708;BME280;67643;-34.198;22.084;2023-05-19T13:49:35;100593.49;;;19.37;41.74
63708;BME280;67643;-34.198;22.084;2023-05-19T13:52:04;100588.69;;;19.58;41.86
63708;BME280;67643;-34.198;22.084;2023-05-19T13:54:33;100588.60;;;19.56;41.60
63708;BME280;67643;-34.198;22.084;2023-05-19T13:57:01;100590.42;;;19.12;42.14
63708;BME280;67643;-34.198;22.084;2023-05-19T13:59:30;100591.76;;;19.30;42.09
63708;BME280;67643;-34.198;22.084;2023-05-19T14:01:59;100594.84;;;19.35;42.35
63708;BME280;67643;-34.198;22.084;2023-05-19T14:04:28;100591.84;;;19.22;42.04
63708;BME280;67643;-34.198;22.084;2023-05-19T14:06:57;100589.38;;;19.00;42.61
63708;BME280;67643;-34.198;22.084;2023-05-19T14:09:25;100587.31;;;19.29;42.47
63708;BME280;67643;-34.198;22.084;2023-05-19T14:11:54;100590.01;;;19.02;42.74
63708;BME280;67643;-34.198;22.084;2023-05-19T14:14:22;100587.43;;;19.19;42.81
63708;BME280;67643;-34.198;22.084;2023-05-19T14:16:51;100591.99;;;18.98;42.69
63708;BME280;67643;-34.198;22.084;2023-05-19T14:19:19;100592.87;;;19.15;42.87
63708;BME280;67643;-34.198;22.084;2023-05-19T14:21:48;100593.69;;;19.05;43.02
63708;BME280;67643;-34.198;22.084;2023-05-19T14:24:17;100594.74;;;19.30;42.78
63708;BME280;67643;-34.198;22.084;2023-05-19T14:26:45;100596.76;;;18.96;42.76
63708;BME280;67643;-34.198;22.084;2023-05-19T14:29:14;100596.79;;;18.76;43.36
63708;BME280;67643;-34.198;22.084;2023-05-19T14:31:43;100592.25;;;19.45;42.83
63708;BME280;67643;-34.198;22.084;2023-05-19T14:34:11;100596.70;;;18.96;42.76
63708;BME280;67643;-34.198;22.084;2023-05-19T14:36:39;100600.17;;;19.34;43.36
63708;BME280;67643;-34.198;22.084;2023-05-19T14:39:08;100599.02;;;19.05;43.34
63708;BME280;67643;-34.198;22.084;2023-05-19T14:41:37;100596.87;;;19.27;43.04
63708;BME280;67643;-34.198;22.084;2023-05-19T14:44:06;100600.37;;;18.92;43.66
63708;BME280;67643;-34.198;22.084;2023-05-19T14:46:34;100598.54;;;18.87;43.66
63708;BME280;67643;-34.198;22.084;2023-05-19T14:49:02;100601.31;;;19.22;43.67
63708;BME280;67643;-34.198;22.084;2023-05-19T14:51:32;100601.75;;;18.91;43.85
63708;BME280;67643;-34.198;22.084;2023-05-19T14:54:00;100602.74;;;18.89;44.30
63708;BME280;67643;-34.198;22.084;2023-05-19T14:56:29;100606.31;;;19.27;44.15
63708;BME280;67643;-34.198;22.084;2023-05-19T14:58:58;100604.04;;;19.12;43.79
63708;BME280;67643;-34.198;22.084;2023-05-19T15:01:27;100603.35;;;19.17;43.77
63708;BME280;67643;-34.198;22.084;2023-05-19T15:03:55;100602.12;;;19.43;44.43
63708;BME280;67643;-34.198;22.084;2023-05-19T15:06:23;100603.29;;;18.92;44.77
63708;BME280;67643;-34.198;22.084;2023-05-19T15:08:53;100603.14;;;19.24;44.54
63708;BME280;67643;-34.198;22.084;2023-05-19T15:11:24;100601.11;;;18.88;44.77
63708;BME280;67643;-34.198;22.084;2023-05-19T15:13:53;100598.11;;;19.01;44.61
63708;BME280;67643;-34.198;22.084;2023-05-19T15:16:21;100596.95;;;19.42;44.28
63708;BME280;67643;-34.198;22.084;2023-05-19T15:18:50;100599.58;;;19.13;44.35
63708;BME280;67643;-34.198;22.084;2023-05-19T15:21:18;100598.33;;;19.05;44.61
63708;BME280;67643;-34.198;22.084;2023-05-19T15:23:47;100600.39;;;19.17;44.75
63708;BME280;67643;-34.198;22.084;2023-05-19T15:26:15;100600.55;;;19.13;44.73
63708;BME280;67643;-34.198;22.084;2023-05-19T15:28:44;100601.89;;;19.47;44.58
63708;BME280;67643;-34.198;22.084;2023-05-19T15:31:12;100608.06;;;18.96;44.50
63708;BME280;67643;-34.198;22.084;2023-05-19T15:33:40;100607.71;;;19.38;44.25
63708;BME280;67643;-34.198;22.084;2023-05-19T15:36:09;100606.99;;;19.52;44.29
63708;BME280;67643;-34.198;22.084;2023-05-19T15:38:37;100605.82;;;19.46;44.30
63708;BME280;67643;-34.198;22.084;2023-05-19T15:41:07;100605.28;;;18.99;44.22
63708;BME280;67643;-34.198;22.084;2023-05-19T15:43:36;100607.61;;;19.29;44.56
63708;BME280;67643;-34.198;22.084;2023-05-19T15:46:04;100608.93;;;19.10;44.79
63708;BME280;67643;-34.198;22.084;2023-05-19T15:48:33;100607.61;;;19.18;44.66
63708;BME280;67643;-34.198;22.084;2023-05-19T15:51:01;100604.82;;;19.13;44.70
63708;BME280;67643;-34.198;22.084;2023-05-19T15:53:29;100606.87;;;18.98;44.96
63708;BME280;67643;-34.198;22.084;2023-05-19T15:55:58;100608.18;;;19.01;45.05
63708;BME280;67643;-34.198;22.084;2023-05-19T15:58:26;100607.11;;;19.23;44.53
63708;BME280;67643;-34.198;22.084;2023-05-19T16:00:54;100610.81;;;18.98;44.83
63708;BME280;67643;-34.198;22.084;2023-05-19T16:03:23;100615.20;;;18.89;45.02
63708;BME280;67643;-34.198;22.084;2023-05-19T16:05:52;100617.35;;;18.86;45.01
63708;BME280;67643;-34.198;22.084;2023-05-19T16:08:20;100619.67;;;18.37;45.42
63708;BME280;67643;-34.198;22.084;2023-05-19T16:10:49;100620.31;;;18.58;45.43
63708;BME280;67643;-34.198;22.084;2023-05-19T16:13:17;100619.84;;;18.91;44.77
63708;BME280;67643;-34.198;22.084;2023-05-19T16:15:46;100624.67;;;18.56;45.05
63708;BME280;67643;-34.198;22.084;2023-05-19T16:18:14;100623.98;;;18.85;44.82
63708;BME280;67643;-34.198;22.084;2023-05-19T16:20:42;100628.73;;;18.82;44.80
63708;BME280;67643;-34.198;22.084;2023-05-19T16:23:11;100626.98;;;18.57;44.71
63708;BME280;67643;-34.198;22.084;2023-05-19T16:25:39;100624.75;;;18.83;44.61
63708;BME280;67643;-34.198;22.084;2023-05-19T16:28:07;100627.03;;;18.43;44.49
63708;BME280;67643;-34.198;22.084;2023-05-19T16:30:36;100627.23;;;18.82;44.56
63708;BME280;67643;-34.198;22.084;2023-05-19T16:33:04;100626.54;;;18.48;44.32
63708;BME280;67643;-34.198;22.084;2023-05-19T16:35:33;100626.26;;;18.83;44.32
63708;BME280;67643;-34.198;22.084;2023-05-19T16:38:01;100623.51;;;18.87;44.37
63708;BME280;67643;-34.198;22.084;2023-05-19T16:40:30;100627.20;;;18.61;44.37
63708;BME280;67643;-34.198;22.084;2023-05-19T16:42:58;100628.10;;;18.78;44.60
63708;BME280;67643;-34.198;22.084;2023-05-19T16:45:26;100627.14;;;18.65;44.81
63708;BME280;67643;-34.198;22.084;2023-05-19T16:47:55;100627.22;;;18.65;44.75
63708;BME280;67643;-34.198;22.084;2023-05-19T16:50:23;100631.25;;;18.49;44.94
63708;BME280;67643;-34.198;22.084;2023-05-19T16:52:52;100636.59;;;19.02;44.65
63708;BME280;67643;-34.198;22.084;2023-05-19T16:55:20;100637.74;;;18.64;44.85